Terminal Aerodrome Forecast
Issued by NWS North Platte, NE

Home | Current Version | Previous Version | Text Only | Print | Product List | Glossary On
Versions: 1 2 3 4 5 6 7 8 9 10 11 12
000
FTUS43 KLBF 202329
TAFLBF
TAF
KLBF 202329Z 2100/2124 16012KT P6SM SCT250
     FM210300 14012KT P6SM SCT200 WS015/19045KT
     FM210800 24012KT P6SM SCT150
     FM211100 29015G22KT P6SM SCT150
     FM211200 32015G22KT P6SM BKN100=

USA.gov is the U.S. government's official web portal to all federal, state and local government web resources and services.